Time;durP1;ratioP1;P1;durP2;ratioP2;P2;SDS_P1;SDS_P2;PMS_P1;PMS_P2;Temp;Humidity;BMP_temperature;BMP_pressure;BME280_temperature;BME280_humidity;BME280_pressure;Samples;Min_cycle;Max_cycle;Signal;HPM_P1;HPM_P2
2023/03/14 00:01:27;;;;;;;5.90;3.00;;;;;;;4.83;63.78;100233.04;1745488;82;21026;-59
2023/03/14 00:03:56;;;;;;;5.87;2.95;;;;;;;4.84;63.80;100230.67;1745325;82;21086;-59
2023/03/14 00:06:25;;;;;;;6.90;3.17;;;;;;;4.82;63.87;100232.19;1745759;82;21035;-59
2023/03/14 00:08:55;;;;;;;7.30;2.98;;;;;;;4.82;63.91;100228.13;1745706;82;21070;-60
2023/03/14 00:11:26;;;;;;;7.22;3.10;;;;;;;4.82;63.94;100220.48;1745463;82;21473;-59
2023/03/14 00:13:54;;;;;;;5.53;3.30;;;;;;;4.80;64.06;100225.23;1724648;82;21043;-58
2023/03/14 00:16:26;;;;;;;4.78;2.77;;;;;;;4.80;64.08;100220.66;1745280;82;21047;-59
2023/03/14 00:18:55;;;;;;;5.08;2.72;;;;;;;4.78;64.09;100224.88;1745372;82;21070;-59
2023/03/14 00:21:24;;;;;;;6.62;3.15;;;;;;;4.76;64.22;100218.77;1745572;82;21027;-59
2023/03/14 00:23:54;;;;;;;5.37;3.22;;;;;;;4.76;64.29;100211.98;1745372;82;21536;-59
2023/03/14 00:26:23;;;;;;;5.62;3.30;;;;;;;4.77;64.42;100215.55;1745508;82;21497;-60
2023/03/14 00:28:52;;;;;;;5.08;2.92;;;;;;;4.77;64.39;100212.33;1745345;82;21528;-59
2023/03/14 00:31:21;;;;;;;5.62;3.33;;;;;;;4.74;64.46;100211.30;1745772;82;21031;-58
2023/03/14 00:33:52;;;;;;;5.15;2.77;;;;;;;4.72;64.59;100201.12;1745512;82;21466;-59
2023/03/14 00:36:22;;;;;;;5.40;3.08;;;;;;;4.72;64.61;100206.55;1745696;82;21459;-58
2023/03/14 00:38:51;;;;;;;6.65;3.55;;;;;;;4.70;64.69;100204.50;1745592;82;21051;-59
2023/03/14 00:41:23;;;;;;;5.92;2.70;;;;;;;4.69;64.69;100200.09;1745513;82;21035;-60
2023/03/14 00:43:53;;;;;;;6.47;3.10;;;;;;;4.68;64.77;100195.68;1745560;82;21062;-59
2023/03/14 00:46:21;;;;;;;4.35;2.67;;;;;;;4.68;64.81;100190.76;1745533;82;21003;-60
2023/03/14 00:48:51;;;;;;;5.78;3.25;;;;;;;4.67;64.82;100185.84;1745733;82;21015;-59
2023/03/14 00:51:19;;;;;;;6.45;2.90;;;;;;;4.66;64.89;100188.21;1745801;82;20999;-59
2023/03/14 00:53:49;;;;;;;5.28;3.33;;;;;;;4.65;64.88;100180.23;1745828;82;20995;-57
2023/03/14 00:56:19;;;;;;;6.17;2.75;;;;;;;4.62;64.91;100181.92;1745841;82;21023;-59
2023/03/14 00:58:55;;;;;;;6.45;2.95;;;;;;;4.59;64.94;100177.67;1745493;82;20992;-59
2023/03/14 01:01:24;;;;;;;6.65;3.40;;;;;;;4.56;64.94;100170.38;1725637;82;21496;-58
2023/03/14 01:03:55;;;;;;;8.73;3.00;;;;;;;4.54;64.89;100166.44;1745812;82;21058;-59
2023/03/14 01:06:27;;;;;;;5.12;3.08;;;;;;;4.53;64.95;100165.24;1745325;82;21524;-59
2023/03/14 01:08:57;;;;;;;4.45;2.62;;;;;;;4.51;65.01;100157.27;1745507;82;21431;-59
2023/03/14 01:11:30;;;;;;;4.60;2.80;;;;;;;4.50;64.96;100147.94;1745691;82;21047;-58
2023/03/14 01:14:00;;;;;;;4.85;3.08;;;;;;;4.46;65.02;100157.77;1745688;82;20999;-59
2023/03/14 01:16:32;;;;;;;5.20;3.08;;;;;;;4.45;65.09;100157.92;1745730;82;21026;-60
2023/03/14 01:19:05;;;;;;;7.72;3.20;;;;;;;4.43;65.12;100155.89;1745708;82;21415;-58
2023/03/14 01:21:35;;;;;;;4.08;2.52;;;;;;;4.42;65.18;100156.39;1745497;82;21666;-58
2023/03/14 01:24:05;;;;;;;10.65;3.30;;;;;;;4.42;65.18;100155.03;1747142;82;21524;-58
2023/03/14 01:26:35;;;;;;;10.40;3.27;;;;;;;4.43;65.14;100155.89;1750992;82;21106;-59
2023/03/14 01:29:06;;;;;;;3.90;2.55;;;;;;;4.43;65.13;100156.73;1751104;82;21050;-60
2023/03/14 01:31:36;;;;;;;6.87;3.45;;;;;;;4.42;65.16;100169.11;1751035;82;20991;-59
2023/03/14 01:34:07;;;;;;;6.42;3.40;;;;;;;4.37;65.20;100175.02;1751056;82;21501;-58
2023/03/14 01:36:36;;;;;;;4.90;2.70;;;;;;;4.34;65.24;100179.92;1751229;82;21066;-59
2023/03/14 01:39:08;;;;;;;5.45;2.60;;;;;;;4.31;65.33;100178.89;1751049;82;21019;-60
2023/03/14 01:41:38;;;;;;;6.97;3.12;;;;;;;4.30;65.50;100179.91;1751015;82;21019;-59
2023/03/14 01:44:12;;;;;;;6.58;3.00;;;;;;;4.28;65.51;100172.44;1751169;82;21447;-58
2023/03/14 01:46:49;;;;;;;5.85;3.12;;;;;;;4.25;65.59;100178.19;1751051;82;21450;-59
2023/03/14 01:49:33;;;;;;;5.58;2.72;;;;;;;4.25;65.66;100169.55;1751069;82;21470;-58
2023/03/14 01:52:22;;;;;;;5.90;2.83;;;;;;;4.24;65.77;100167.00;1750700;82;21463;-58
2023/03/14 01:54:58;;;;;;;4.87;2.80;;;;;;;4.23;65.80;100159.37;1751134;82;21051;-60
2023/03/14 01:57:33;;;;;;;4.30;2.85;;;;;;;4.23;65.82;100166.66;1751253;82;21018;-59
2023/03/14 02:00:14;;;;;;;10.90;4.15;;;;;;;4.20;65.94;100163.77;1741509;82;21070;-59
2023/03/14 02:02:51;;;;;;;9.60;3.10;;;;;;;4.18;66.09;100160.36;1750942;82;20991;-59
2023/03/14 02:05:32;;;;;;;6.42;2.27;;;;;;;4.17;66.10;100168.66;1751148;82;21455;-59
2023/03/14 02:08:06;;;;;;;5.60;2.65;;;;;;;4.15;66.14;100157.98;1750060;82;21697;-60
2023/03/14 02:10:48;;;;;;;6.25;2.40;;;;;;;4.12;66.25;100151.52;1688907;85;21496;-59
2023/03/14 02:13:20;;;;;;;5.03;2.80;;;;;;;4.09;66.41;100155.41;1689365;84;21500;-59
2023/03/14 02:16:07;;;;;;;4.58;2.20;;;;;;;4.06;66.49;100157.09;1652523;87;21063;-59
2023/03/14 02:18:44;;;;;;;6.78;2.83;;;;;;;4.04;66.66;100150.98;1678645;84;21048;-59
2023/03/14 02:21:37;;;;;;;5.90;2.65;;;;;;;4.01;66.75;100155.87;1688021;84;21527;-58
2023/03/14 02:24:33;;;;;;;5.25;2.62;;;;;;;4.00;66.88;100152.82;1687210;84;21503;-58
2023/03/14 02:27:14;;;;;;;5.55;2.70;;;;;;;3.99;66.93;100157.39;1689874;85;21499;-58
2023/03/14 02:29:56;;;;;;;5.95;3.22;;;;;;;3.95;66.94;100166.86;1691027;84;21548;-59
2023/03/14 02:32:26;;;;;;;5.65;2.92;;;;;;;3.91;67.08;100172.77;1691009;85;21136;-58
2023/03/14 02:35:00;;;;;;;7.37;2.77;;;;;;;3.86;67.21;100172.36;1709616;82;21027;-58
2023/03/14 02:37:39;;;;;;;4.58;2.70;;;;;;;3.81;67.35;100171.48;1755768;82;21446;-59
2023/03/14 02:40:09;;;;;;;5.78;2.35;;;;;;;3.81;67.44;100171.48;1752914;82;21073;-59
2023/03/14 02:42:39;;;;;;;3.92;2.50;;;;;;;3.81;67.51;100172.33;1757437;82;21015;-57
2023/03/14 02:45:15;;;;;;;4.37;2.95;;;;;;;3.81;67.63;100166.06;1758202;82;21011;-59
2023/03/14 02:47:56;;;;;;;6.75;2.90;;;;;;;3.79;67.68;100164.02;1758628;82;21503;-58
2023/03/14 02:50:29;;;;;;;6.62;3.17;;;;;;;3.76;67.75;100169.76;1758370;81;21458;-58
2023/03/14 02:52:58;;;;;;;8.50;3.27;;;;;;;3.73;67.85;100167.37;1756377;82;21973;-58
2023/03/14 02:55:27;;;;;;;4.97;3.17;;;;;;;3.72;67.86;100168.38;1755851;82;21054;-59
2023/03/14 02:58:00;;;;;;;4.58;3.40;;;;;;;3.68;67.89;100161.58;1755768;82;21062;-58
2023/03/14 03:00:30;;;;;;;5.85;2.98;;;;;;;3.63;67.94;100165.27;1755986;81;21058;-59
2023/03/14 03:03:00;;;;;;;5.08;2.72;;;;;;;3.57;68.01;100167.26;1755626;82;21481;-59
2023/03/14 03:05:30;;;;;;;4.95;3.30;;;;;;;3.54;68.12;100167.58;1755942;82;21062;-59
2023/03/14 03:08:02;;;;;;;6.65;3.40;;;;;;;3.52;68.16;100172.30;1755694;82;21054;-59
2023/03/14 03:10:34;;;;;;;5.45;3.12;;;;;;;3.50;68.15;100181.44;1755522;82;21046;-59
2023/03/14 03:13:03;;;;;;;6.12;3.27;;;;;;;3.49;68.22;100175.67;1755855;82;21579;-59
2023/03/14 03:15:32;;;;;;;5.15;3.33;;;;;;;3.46;68.21;100182.76;1755696;82;21021;-59
2023/03/14 03:18:03;;;;;;;4.53;2.55;;;;;;;3.45;68.23;100179.70;1755720;82;21289;-60
2023/03/14 03:20:32;;;;;;;4.50;2.52;;;;;;;3.43;68.19;100176.30;1755833;82;21093;-59
2023/03/14 03:23:01;;;;;;;6.95;3.33;;;;;;;3.41;68.07;100174.26;1755644;82;21066;-58
2023/03/14 03:25:32;;;;;;;5.97;3.33;;;;;;;3.38;68.19;100182.70;1748842;82;21075;-57
2023/03/14 03:28:07;;;;;;;4.62;2.92;;;;;;;3.39;68.14;100170.00;1745435;82;21070;-58
2023/03/14 03:30:39;;;;;;;4.30;3.05;;;;;;;3.36;67.99;100170.31;1745525;82;21070;-58
2023/03/14 03:33:08;;;;;;;4.83;2.60;;;;;;;3.34;67.87;100163.70;1745517;82;21059;-59
2023/03/14 03:35:46;;;;;;;5.15;2.85;;;;;;;3.31;67.79;100163.17;1745625;82;21434;-58
2023/03/14 03:38:19;;;;;;;4.95;2.80;;;;;;;3.29;67.63;100157.06;1745483;82;21026;-58
2023/03/14 03:40:51;;;;;;;4.87;3.22;;;;;;;3.26;67.60;100152.81;1745578;82;21513;-58
2023/03/14 03:43:20;;;;;;;4.67;2.98;;;;;;;3.25;67.55;100155.64;1745547;82;21027;-60
2023/03/14 03:45:50;;;;;;;5.37;3.05;;;;;;;3.26;67.58;100156.88;1745530;82;21074;-60
2023/03/14 03:48:20;;;;;;;5.75;3.10;;;;;;;3.25;67.41;100157.88;1745451;82;21023;-59
2023/03/14 03:50:49;;;;;;;4.10;2.65;;;;;;;3.22;67.24;100160.87;1745412;82;21034;-58
2023/03/14 03:53:21;;;;;;;7.12;3.05;;;;;;;3.21;67.17;100151.55;1745474;82;21491;-59
2023/03/14 03:55:52;;;;;;;5.22;2.85;;;;;;;3.16;67.20;100147.45;1744111;82;21082;-59
2023/03/14 03:58:21;;;;;;;3.92;2.75;;;;;;;3.14;67.06;100147.27;1745837;82;21046;-60
2023/03/14 04:00:50;;;;;;;3.87;2.50;;;;;;;3.12;66.95;100147.92;1745027;82;21070;-60
2023/03/14 04:03:20;;;;;;;4.67;2.85;;;;;;;3.09;66.86;100142.83;1745666;82;20987;-59
2023/03/14 04:06:04;;;;;;;5.08;2.62;;;;;;;3.10;66.91;100145.87;1745298;82;21027;-58
2023/03/14 04:08:36;;;;;;;4.20;2.80;;;;;;;3.08;66.76;100151.45;1745582;82;20992;-59
2023/03/14 04:11:06;;;;;;;4.58;2.72;;;;;;;3.06;66.66;100148.05;1745536;82;21056;-57
2023/03/14 04:13:57;;;;;;;4.90;2.60;;;;;;;3.05;66.46;100146.34;1745044;82;21424;-58
2023/03/14 04:16:26;;;;;;;5.10;2.67;;;;;;;3.04;66.39;100137.03;1745877;82;21031;-59
2023/03/14 04:18:58;;;;;;;4.10;2.45;;;;;;;3.03;66.25;100141.59;1744946;82;21016;-58
2023/03/14 04:21:27;;;;;;;4.35;2.83;;;;;;;3.03;66.28;100135.33;1745917;82;21023;-58
2023/03/14 04:23:59;;;;;;;14.87;3.22;;;;;;;3.01;66.12;100135.48;1745435;82;21011;-60
2023/03/14 04:26:30;;;;;;;3.95;2.75;;;;;;;3.00;66.14;100149.17;1750256;82;21110;-59
2023/03/14 04:28:59;;;;;;;4.22;2.50;;;;;;;2.99;66.10;100146.12;1751306;82;21019;-60
2023/03/14 04:31:29;;;;;;;4.25;2.52;;;;;;;2.99;66.07;100142.06;1751107;82;21022;-60
2023/03/14 04:33:59;;;;;;;5.22;2.40;;;;;;;2.97;65.96;100139.50;1751139;82;21063;-60
2023/03/14 04:36:31;;;;;;;5.03;2.62;;;;;;;2.96;65.89;100132.90;1750181;82;21042;-59
2023/03/14 04:39:01;;;;;;;4.55;2.65;;;;;;;2.95;65.82;100140.17;1750930;82;21434;-59
2023/03/14 04:41:32;;;;;;;3.27;2.40;;;;;;;2.94;65.92;100134.41;1751119;82;21042;-59
2023/03/14 04:44:01;;;;;;;3.85;2.33;;;;;;;2.93;65.86;100138.12;1751324;82;21438;-59
2023/03/14 04:46:32;;;;;;;3.95;2.30;;;;;;;2.93;65.81;100127.30;1751048;82;21070;-60
2023/03/14 04:49:02;;;;;;;6.12;2.70;;;;;;;2.94;65.69;100122.23;1751042;82;21054;-60
2023/03/14 04:51:31;;;;;;;6.60;2.83;;;;;;;2.94;65.76;100120.88;1751088;82;21093;-59
2023/03/14 04:54:00;;;;;;;6.67;2.50;;;;;;;2.94;65.80;100118.17;1751089;82;21015;-59
2023/03/14 04:56:31;;;;;;;5.70;2.50;;;;;;;2.95;65.77;100104.98;1751167;82;21046;-60
2023/03/14 04:59:01;;;;;;;5.60;2.72;;;;;;;2.98;65.77;100107.88;1723689;82;21117;-60
2023/03/14 05:01:31;;;;;;;6.10;2.60;;;;;;;2.99;65.82;100104.17;1751377;82;21070;-58
2023/03/14 05:04:05;;;;;;;6.53;2.77;;;;;;;2.99;65.71;100089.28;1747404;82;21102;-59
2023/03/14 05:06:39;;;;;;;6.72;2.58;;;;;;;2.98;65.74;100091.64;1714349;82;21493;-59
2023/03/14 05:09:17;;;;;;;4.70;2.67;;;;;;;3.00;65.87;100099.11;1748996;82;21419;-59
2023/03/14 05:11:49;;;;;;;5.72;2.35;;;;;;;3.02;65.83;100100.65;1749007;82;21463;-59
2023/03/14 05:14:39;;;;;;;4.55;2.40;;;;;;;3.04;65.87;100104.55;1751415;82;21019;-59
2023/03/14 05:17:14;;;;;;;21.42;5.53;;;;;;;3.06;65.75;100097.97;1749518;82;21039;-59
2023/03/14 05:20:02;;;;;;;3.52;2.35;;;;;;;3.08;65.72;100097.81;1751208;82;21524;-59
2023/03/14 05:22:36;;;;;;;5.53;2.62;;;;;;;3.08;65.65;100089.70;1744455;82;21471;-59
2023/03/14 05:25:08;;;;;;;6.40;3.12;;;;;;;3.11;65.65;100092.94;1748360;82;21094;-59
2023/03/14 05:27:39;;;;;;;7.75;2.98;;;;;;;3.15;65.66;100101.59;1742878;82;21047;-59
2023/03/14 05:30:20;;;;;;;6.17;2.70;;;;;;;3.16;65.64;100110.91;1743555;82;21047;-60
2023/03/14 05:32:54;;;;;;;7.92;3.37;;;;;;;3.21;65.65;100123.13;1738580;81;21103;-59
2023/03/14 05:35:34;;;;;;;5.08;2.77;;;;;;;3.24;65.56;100107.92;1743492;82;21106;-59
2023/03/14 05:38:14;;;;;;;15.05;3.20;;;;;;;3.31;65.44;100116.64;1742653;82;21423;-60
2023/03/14 05:40:45;;;;;;;8.78;2.92;;;;;;;3.36;65.24;100112.95;1745630;82;20995;-59
2023/03/14 05:43:33;;;;;;;5.58;2.95;;;;;;;3.41;65.09;100115.19;1745427;82;21086;-59
2023/03/14 05:46:17;;;;;;;7.20;3.75;;;;;;;3.47;64.95;100120.81;1692747;81;21475;-59
2023/03/14 05:48:49;;;;;;;12.65;4.92;;;;;;;3.55;64.80;100114.59;1745035;82;21094;-59
2023/03/14 05:51:26;;;;;;;4.80;3.10;;;;;;;3.64;64.75;100124.98;1736305;82;21023;-59
2023/03/14 05:54:15;;;;;;;7.75;3.08;;;;;;;3.73;64.46;100128.08;1744813;82;21019;-60
2023/03/14 05:56:49;;;;;;;5.33;2.98;;;;;;;3.82;64.29;100135.25;1744427;82;21120;-60
2023/03/14 05:59:34;;;;;;;8.53;2.60;;;;;;;3.91;63.91;100156.50;1744496;82;21454;-58
2023/03/14 06:02:14;;;;;;;5.80;3.15;;;;;;;3.98;63.50;100163.83;1742559;82;21039;-60
2023/03/14 06:04:50;;;;;;;5.62;2.55;;;;;;;4.05;63.22;100173.02;1690927;84;21113;-60
2023/03/14 06:07:21;;;;;;;7.72;3.00;;;;;;;4.13;63.25;100182.55;1691235;84;21160;-58
2023/03/14 06:09:50;;;;;;;5.95;3.40;;;;;;;4.18;62.99;100161.72;1691121;85;21060;-59
2023/03/14 06:12:20;;;;;;;9.60;3.72;;;;;;;4.27;62.59;100166.67;1691392;85;21096;-59
2023/03/14 06:14:49;;;;;;;10.08;3.00;;;;;;;4.33;62.44;100163.31;1691214;84;21158;-62
2023/03/14 06:17:19;;;;;;;11.03;3.10;;;;;;;4.39;62.23;100165.36;1691183;84;21683;-61
2023/03/14 06:19:51;;;;;;;6.83;2.90;;;;;;;4.46;61.91;100152.34;1690907;84;21766;-60
2023/03/14 06:22:20;;;;;;;8.15;2.72;;;;;;;4.55;61.59;100145.58;1702607;82;21056;-59
2023/03/14 06:24:51;;;;;;;7.03;2.60;;;;;;;4.60;61.24;100131.89;1746541;82;21062;-60
2023/03/14 06:27:23;;;;;;;6.15;2.67;;;;;;;4.66;61.18;100135.30;1748255;82;21050;-59
2023/03/14 06:29:55;;;;;;;10.53;3.33;;;;;;;4.69;60.96;100143.10;1666207;86;21507;-60
2023/03/14 06:32:27;;;;;;;6.58;2.83;;;;;;;4.75;60.94;100149.22;1665893;86;21092;-59
2023/03/14 06:35:00;;;;;;;7.78;2.33;;;;;;;4.82;60.69;100156.19;1664887;86;21240;-59
2023/03/14 06:37:30;;;;;;;14.10;3.40;;;;;;;4.88;60.30;100143.81;1663629;86;21190;-60
2023/03/14 06:40:00;;;;;;;12.13;5.28;;;;;;;4.94;60.28;100141.28;1663553;86;21098;-59
2023/03/14 06:42:33;;;;;;;8.70;4.05;;;;;;;5.00;60.02;100139.75;1661586;86;21056;-59
2023/03/14 06:45:04;;;;;;;8.85;3.08;;;;;;;5.06;59.68;100131.78;1663243;86;21601;-60
2023/03/14 06:47:32;;;;;;;6.97;2.72;;;;;;;5.15;59.78;100129.07;1685653;82;21050;-59
2023/03/14 06:50:04;;;;;;;16.07;3.52;;;;;;;5.23;59.44;100115.52;1745534;82;21055;-60
2023/03/14 06:52:35;;;;;;;5.35;2.85;;;;;;;5.29;58.66;100107.54;1745611;82;21045;-60
2023/03/14 06:55:06;;;;;;;7.12;2.90;;;;;;;5.34;58.43;100120.61;1745639;82;21034;-60
2023/03/14 06:57:35;;;;;;;6.65;2.77;;;;;;;5.39;58.33;100109.56;1724701;82;21015;-58
2023/03/14 07:00:07;;;;;;;6.25;2.55;;;;;;;5.46;58.35;100111.60;1745526;82;21027;-60
2023/03/14 07:02:38;;;;;;;6.03;2.45;;;;;;;5.52;58.19;100106.84;1745461;82;21218;-60
2023/03/14 07:05:11;;;;;;;4.95;2.55;;;;;;;5.57;58.00;100110.73;1745859;82;21477;-61
2023/03/14 07:07:41;;;;;;;9.35;3.22;;;;;;;5.63;57.58;100088.80;1745699;82;21034;-60
2023/03/14 07:10:12;;;;;;;7.05;2.42;;;;;;;5.65;57.74;100088.97;1745681;82;21146;-60
2023/03/14 07:12:42;;;;;;;12.45;2.90;;;;;;;5.72;57.29;100076.38;1745604;82;21031;-61
2023/03/14 07:15:13;;;;;;;15.53;3.12;;;;;;;5.76;57.03;100072.80;1745467;82;21525;-60
2023/03/14 07:17:44;;;;;;;6.83;3.00;;;;;;;5.79;56.51;100068.38;1742765;82;21109;-59
2023/03/14 07:20:15;;;;;;;13.43;2.95;;;;;;;5.80;56.48;100065.14;1745490;82;21051;-61
2023/03/14 07:22:49;;;;;;;10.38;2.90;;;;;;;5.80;56.40;100065.99;1745516;82;21447;-60
2023/03/14 07:25:19;;;;;;;7.25;2.80;;;;;;;5.80;56.20;100068.71;1745623;82;21071;-60
2023/03/14 07:27:49;;;;;;;4.67;2.60;;;;;;;5.81;56.20;100055.45;1753723;81;21071;-60
2023/03/14 07:30:18;;;;;;;7.87;2.70;;;;;;;5.83;56.12;100064.79;1753728;82;21063;-60
2023/03/14 07:32:50;;;;;;;8.23;3.02;;;;;;;5.87;56.29;100064.81;1658292;86;21024;-59
2023/03/14 07:35:23;;;;;;;5.83;3.30;;;;;;;5.91;56.30;100077.91;1636895;86;21020;-60
2023/03/14 07:37:52;;;;;;;12.98;3.25;;;;;;;5.96;56.14;100071.94;1626267;87;21482;-61
2023/03/14 07:40:22;;;;;;;10.25;3.05;;;;;;;6.01;56.00;100075.83;1657833;86;21189;-59
2023/03/14 07:42:55;;;;;;;8.63;3.05;;;;;;;6.07;55.76;100063.39;1626080;88;21598;-61
2023/03/14 07:45:31;;;;;;;7.45;3.33;;;;;;;6.14;55.87;100054.02;1658323;86;21076;-60
2023/03/14 07:48:01;;;;;;;7.05;2.90;;;;;;;6.23;55.93;100062.47;1626242;88;21067;-61
2023/03/14 07:50:31;;;;;;;8.30;3.22;;;;;;;6.31;55.76;100062.42;1687539;82;21024;-61
2023/03/14 07:53:00;;;;;;;15.15;3.30;;;;;;;6.39;55.57;100049.28;1753945;82;21020;-60
2023/03/14 07:55:29;;;;;;;8.53;3.17;;;;;;;6.46;55.59;100049.75;1754016;81;21024;-61
2023/03/14 07:58:01;;;;;;;7.37;3.20;;;;;;;6.55;55.40;100062.31;1753826;82;21043;-61
2023/03/14 08:00:30;;;;;;;17.98;3.70;;;;;;;6.66;55.03;100037.91;1753742;81;21024;-60
2023/03/14 08:03:00;;;;;;;10.25;3.72;;;;;;;6.75;54.70;100036.81;1753720;82;21028;-60
2023/03/14 08:05:29;;;;;;;5.83;2.72;;;;;;;6.88;54.72;100044.37;1753870;82;21064;-62
2023/03/14 08:07:58;;;;;;;7.37;3.47;;;;;;;7.20;54.32;100050.92;1753780;81;21044;-61
2023/03/14 08:10:28;;;;;;;8.48;2.92;;;;;;;7.64;53.40;100039.23;1753705;81;21024;-60
2023/03/14 08:12:59;;;;;;;13.18;3.42;;;;;;;8.17;52.15;100039.97;1753743;82;21040;-61
2023/03/14 08:15:29;;;;;;;13.60;3.62;;;;;;;8.72;50.68;100043.49;1753678;82;21088;-61
2023/03/14 08:18:00;;;;;;;8.90;3.58;;;;;;;9.15;49.23;100029.31;1753627;82;21468;-61
2023/03/14 08:20:29;;;;;;;8.30;3.12;;;;;;;9.50;47.75;100023.37;1753984;81;21416;-61
2023/03/14 08:23:01;;;;;;;7.22;3.00;;;;;;;9.82;47.26;100028.75;1753714;82;21012;-61
2023/03/14 08:25:31;;;;;;;7.45;3.12;;;;;;;10.19;46.50;100038.94;1754003;82;20997;-61
2023/03/14 08:28:01;;;;;;;40.48;4.33;;;;;;;10.46;45.51;100025.72;1753800;81;21020;-60
2023/03/14 08:30:31;;;;;;;8.28;3.20;;;;;;;10.66;44.61;100033.14;1753675;82;21021;-61
2023/03/14 08:33:01;;;;;;;8.90;4.65;;;;;;;10.86;44.23;100029.91;1753663;82;21076;-61
2023/03/14 08:35:30;;;;;;;12.93;3.98;;;;;;;11.08;44.47;100026.48;1753733;82;21024;-62
2023/03/14 08:38:01;;;;;;;6.08;2.80;;;;;;;11.29;43.10;100055.59;1753929;82;21478;-61
2023/03/14 08:40:30;;;;;;;8.68;3.20;;;;;;;11.37;42.77;100027.96;1753868;82;21028;-61
2023/03/14 08:43:00;;;;;;;8.15;3.02;;;;;;;11.44;42.61;100035.66;1753833;82;21472;-61
2023/03/14 08:45:30;;;;;;;11.08;3.50;;;;;;;11.41;42.09;100026.48;1753525;82;21482;-60
2023/03/14 08:47:59;;;;;;;11.05;3.30;;;;;;;11.37;42.30;100039.77;1753950;82;20993;-62
2023/03/14 08:50:29;;;;;;;8.15;3.10;;;;;;;11.37;42.53;100027.43;1753677;82;21553;-61
2023/03/14 08:53:00;;;;;;;4.10;2.62;;;;;;;11.33;42.49;100023.95;1752650;80;21424;-61
2023/03/14 08:55:30;;;;;;;29.00;5.25;;;;;;;11.28;42.80;100031.97;1735526;80;21043;-61
2023/03/14 08:57:59;;;;;;;65.32;6.62;;;;;;;11.18;42.74;100025.54;1735309;81;21066;-63
2023/03/14 09:00:32;;;;;;;7.65;3.05;;;;;;;11.08;42.74;100012.78;1726870;82;21055;-62
2023/03/14 09:03:01;;;;;;;5.47;2.70;;;;;;;10.95;43.15;100020.96;1744734;82;21067;-62
2023/03/14 09:05:35;;;;;;;5.83;2.85;;;;;;;10.84;43.68;100011.99;1753473;81;21009;-64
2023/03/14 09:08:06;;;;;;;11.43;2.98;;;;;;;10.75;44.13;100014.93;1753517;81;21033;-62
2023/03/14 09:10:35;;;;;;;5.42;2.90;;;;;;;10.71;44.87;100002.70;1748590;81;21014;-61
2023/03/14 09:13:12;;;;;;;18.23;3.50;;;;;;;10.68;45.04;99996.80;1734584;82;21415;-62
2023/03/14 09:15:43;;;;;;;4.62;2.65;;;;;;;10.61;44.57;100006.89;1731471;83;21050;-63
2023/03/14 09:18:31;;;;;;;7.92;3.00;;;;;;;10.50;44.97;99999.28;1709932;82;21050;-64
2023/03/14 09:21:02;;;;;;;8.35;3.10;;;;;;;10.48;45.68;99998.97;1640568;87;21034;-63
2023/03/14 09:23:33;;;;;;;9.20;3.00;;;;;;;10.50;45.75;100011.61;1640566;87;21703;-63
2023/03/14 09:26:02;;;;;;;7.42;2.90;;;;;;;10.47;45.57;99989.06;1639814;87;21518;-63
2023/03/14 09:28:31;;;;;;;11.78;3.35;;;;;;;10.45;46.24;99993.91;1637192;87;21081;-63
2023/03/14 09:31:08;;;;;;;5.87;2.80;;;;;;;10.45;46.32;99993.91;1642044;87;21142;-64
2023/03/14 09:33:37;;;;;;;6.78;3.25;;;;;;;10.44;46.40;99994.95;1642062;87;21029;-62
2023/03/14 09:36:07;;;;;;;7.42;3.17;;;;;;;10.43;46.59;99998.74;1642111;87;21100;-62
2023/03/14 09:38:36;;;;;;;6.65;2.90;;;;;;;10.39;46.44;99978.80;1658639;84;21452;-62
2023/03/14 09:41:27;;;;;;;4.87;2.85;;;;;;;10.38;46.76;99983.95;1708945;84;21445;-62
2023/03/14 09:44:22;;;;;;;7.75;3.00;;;;;;;10.38;46.96;99984.80;1706660;83;21020;-62
2023/03/14 09:46:55;;;;;;;8.10;2.62;;;;;;;10.37;46.93;99989.95;1648553;86;21150;-63
2023/03/14 09:49:33;;;;;;;6.55;2.95;;;;;;;10.30;47.23;99971.81;1692622;84;21080;-63
2023/03/14 09:52:04;;;;;;;7.35;2.85;;;;;;;10.31;47.86;99988.04;1717954;81;20997;-62
2023/03/14 09:54:43;;;;;;;6.20;2.77;;;;;;;10.31;47.39;99983.94;1738153;82;21503;-62
2023/03/14 09:57:15;;;;;;;5.17;2.27;;;;;;;10.35;47.18;99976.15;1738538;82;21441;-61
2023/03/14 09:59:48;;;;;;;9.65;4.03;;;;;;;10.39;47.35;99963.73;1690964;83;21042;-63
2023/03/14 10:02:24;;;;;;;7.33;3.08;;;;;;;10.43;47.58;99977.36;1716368;82;21096;-62
2023/03/14 10:04:55;;;;;;;5.35;2.60;;;;;;;10.47;47.77;99968.52;1692688;85;21048;-61
2023/03/14 10:07:31;;;;;;;7.45;2.58;;;;;;;10.54;47.54;99963.58;1693969;85;21065;-63
2023/03/14 10:10:07;;;;;;;8.10;2.50;;;;;;;10.62;47.36;99960.64;1693986;83;21048;-62
2023/03/14 10:12:41;;;;;;;;;;;;;;;10.66;47.51;99961.38;1696612;84;21032;-61
2023/03/14 10:15:14;;;;;;;3.87;1.90;;;;;;;10.68;47.08;99960.64;1692105;85;20472;-63
2023/03/14 10:17:48;;;;;;;6.00;2.85;;;;;;;10.67;47.11;99938.94;1691408;84;21111;-62
2023/03/14 10:20:36;;;;;;;17.42;3.22;;;;;;;10.68;47.09;99942.84;1691196;84;21096;-61
2023/03/14 10:23:16;;;;;;;7.20;2.60;;;;;;;10.70;46.83;99942.63;1691664;83;21499;-62
2023/03/14 10:26:02;;;;;;;7.75;2.58;;;;;;;10.68;46.40;99932.41;1691197;85;21112;-62
2023/03/14 10:28:46;;;;;;;5.67;2.50;;;;;;;10.67;46.95;99928.82;1692420;83;21106;-61
2023/03/14 10:31:17;;;;;;;5.28;2.50;;;;;;;10.77;46.25;99927.03;1692707;85;21042;-62
2023/03/14 10:34:04;;;;;;;8.63;2.92;;;;;;;10.86;46.20;99922.19;1692585;85;21444;-62
2023/03/14 10:36:34;;;;;;;6.03;2.50;;;;;;;10.88;45.61;99931.87;1692452;82;21046;-64
2023/03/14 10:39:25;;;;;;;6.20;2.30;;;;;;;10.87;45.76;99925.23;1692484;83;21070;-63
2023/03/14 10:41:58;;;;;;;8.63;3.15;;;;;;;10.89;45.82;99917.12;1692550;85;21065;-62
2023/03/14 10:44:29;;;;;;;22.70;4.20;;;;;;;10.91;45.92;99916.91;1692387;83;21034;-63
2023/03/14 10:47:03;;;;;;;12.95;3.12;;;;;;;10.92;45.91;99909.00;1692454;85;21455;-62
2023/03/14 10:49:35;;;;;;;7.85;2.60;;;;;;;10.93;45.32;99917.02;1692483;85;21090;-64
2023/03/14 10:52:24;;;;;;;17.25;3.33;;;;;;;10.89;45.84;99917.65;1692565;85;21099;-61
2023/03/14 10:55:05;;;;;;;5.85;2.65;;;;;;;10.88;45.48;99914.06;1708298;82;20995;-64
2023/03/14 10:57:41;;;;;;;4.47;2.60;;;;;;;10.87;45.48;99901.42;1745175;82;21015;-62
2023/03/14 11:00:22;;;;;;;5.42;2.70;;;;;;;10.87;45.58;99893.19;1745047;81;21105;-62
2023/03/14 11:03:00;;;;;;;5.87;2.47;;;;;;;10.88;45.65;99901.73;1755152;81;21081;-63
2023/03/14 11:05:49;;;;;;;7.28;2.72;;;;;;;10.90;45.53;99913.85;1759902;81;21101;-62
2023/03/14 11:08:32;;;;;;;7.15;2.35;;;;;;;10.92;45.13;99890.66;1760296;80;21386;-63
2023/03/14 11:11:16;;;;;;;8.10;2.77;;;;;;;10.94;44.68;99915.11;1759014;81;21390;-62
2023/03/14 11:13:55;;;;;;;7.28;2.55;;;;;;;10.92;44.59;99905.73;1745433;82;21417;-62
2023/03/14 11:17:11;;;;;;;6.97;2.65;;;;;;;10.92;44.55;99891.19;1745240;82;21068;-60
2023/03/14 11:19:54;;;;;;;5.97;2.42;;;;;;;10.93;44.81;99897.83;1690797;85;21058;-60
2023/03/14 11:22:43;;;;;;;4.20;2.20;;;;;;;10.97;44.63;99877.16;1690818;85;21658;-61
2023/03/14 11:25:32;;;;;;;11.70;2.30;;;;;;;10.96;44.48;99880.95;1690758;85;21078;-61
2023/03/14 11:28:12;;;;;;;3.87;2.22;;;;;;;10.96;44.47;99874.62;1659061;85;21054;-61
2023/03/14 11:30:57;;;;;;;7.45;2.08;;;;;;;10.97;44.43;99870.30;1688894;84;21458;-59
2023/03/14 11:33:39;;;;;;;4.37;1.90;;;;;;;10.98;43.85;99866.51;1688626;84;21023;-61
2023/03/14 11:36:10;;;;;;;5.78;1.90;;;;;;;10.98;44.13;99868.41;1688430;85;21533;-60
2023/03/14 11:38:52;;;;;;;6.90;1.90;;;;;;;11.00;43.83;99857.55;1688413;85;21082;-61
2023/03/14 11:41:39;;;;;;;6.35;1.75;;;;;;;11.06;43.95;99871.80;1688735;84;21078;-61
2023/03/14 11:44:28;;;;;;;12.13;2.30;;;;;;;11.07;42.94;99866.63;1715127;82;21119;-62
2023/03/14 11:47:18;;;;;;;4.60;1.80;;;;;;;11.08;43.00;99866.94;1753433;82;21028;-61
2023/03/14 11:50:06;;;;;;;2.42;1.67;;;;;;;11.09;42.97;99856.29;1753252;82;21056;-60
2023/03/14 11:52:59;;;;;;;4.03;1.70;;;;;;;11.09;43.10;99852.17;1752968;82;21083;-62
2023/03/14 11:55:32;;;;;;;9.88;2.00;;;;;;;11.12;43.11;99841.31;1750151;82;21451;-62
2023/03/14 11:58:23;;;;;;;12.78;1.98;;;;;;;11.16;42.28;99841.72;1753211;82;21409;-64
2023/03/14 12:00:53;;;;;;;3.35;1.60;;;;;;;11.20;41.54;99860.27;1743218;82;21624;-62
2023/03/14 12:03:45;;;;;;;4.15;1.50;;;;;;;11.23;40.86;99839.27;1755769;82;21022;-62